Station Historical Data
Daily Summary for May 4, 2012 Units:  English    Metric   Both
« Previous Day
Next Day »
Daily Weekly Monthly Yearly Custom
  High: Low: Average:
Temperature: 83.2 °F 65.4 °F 72.8 °F
Dew Point: 72.5 °F 63.6 °F 67.8 °F
Humidity: 94% 63% 85%
Wind Speed: 7.0mph 0.0mph 3.3mph
Wind Gust: 10.0mph - -
Wind- - South
Pressure: 30.06 in 29.92 in -
Precipitation: 0.01 in    
Historical Graphs
 
 
Tabular Data for May 4, 2012
Time Temperature Dew Point Pressure Wind Wind Speed Wind Gust Humidity Rainfall Rate (Hourly) Conditions
00:00 66.8 °F 64.7 °F 30.00 in SE 2.0 mph 5.0 mph 93% 0.00 in
00:01 66.8 °F 64.7 °F 30.00 in SSE 3.0 mph 4.0 mph 93% 0.00 in
00:06 66.8 °F 64.7 °F 30.00 in SSE 4.0 mph 5.0 mph 93% 0.00 in
00:09 66.7 °F 64.6 °F 30.00 in SE 3.0 mph 5.0 mph 93% 0.00 in
00:15 66.7 °F 64.6 °F 30.00 in SE 4.0 mph 5.0 mph 93% 0.00 in
00:20 66.7 °F 64.6 °F 30.00 in SSE 4.0 mph 4.0 mph 93% 0.00 in
00:25 66.6 °F 64.5 °F 30.00 in SE 4.0 mph 4.0 mph 93% 0.00 in
00:30 66.6 °F 64.5 °F 30.01 in SE 2.0 mph 4.0 mph 93% 0.00 in
00:35 66.6 °F 64.5 °F 30.00 in ESE 6.0 mph 6.0 mph 93% 0.00 in
00:40 66.5 °F 64.7 °F 30.00 in SE 5.0 mph 5.0 mph 94% 0.00 in
00:45 66.5 °F 64.7 °F 30.00 in SSE 5.0 mph 6.0 mph 94% 0.00 in
00:50 66.4 °F 64.6 °F 30.00 in ESE 5.0 mph 5.0 mph 94% 0.00 in
00:55 66.4 °F 64.6 °F 29.99 in SE 5.0 mph 5.0 mph 94% 0.00 in
01:00 66.3 °F 64.5 °F 29.99 in SE 5.0 mph 7.0 mph 94% 0.00 in
01:05 66.4 °F 64.6 °F 29.99 in SE 4.0 mph 5.0 mph 94% 0.00 in
01:10 66.4 °F 64.6 °F 29.99 in SE 2.0 mph 5.0 mph 94% 0.00 in
01:15 66.3 °F 64.5 °F 29.99 in ESE 3.0 mph 5.0 mph 94% 0.00 in
01:20 66.3 °F 64.5 °F 29.99 in SE 4.0 mph 5.0 mph 94% 0.00 in
01:25 66.4 °F 64.6 °F 29.99 in SE 4.0 mph 6.0 mph 94% 0.00 in
01:30 66.5 °F 64.7 °F 29.99 in SE 3.0 mph 6.0 mph 94% 0.00 in
01:35 66.6 °F 64.8 °F 29.99 in SE 4.0 mph 8.0 mph 94% 0.00 in
01:40 66.7 °F 64.9 °F 29.99 in SE 6.0 mph 9.0 mph 94% 0.00 in
01:45 66.8 °F 65.0 °F 29.99 in SE 5.0 mph 9.0 mph 94% 0.00 in
01:50 66.8 °F 65.0 °F 29.99 in South 5.0 mph 7.0 mph 94% 0.00 in
01:55 66.9 °F 65.1 °F 29.99 in SSE 5.0 mph 7.0 mph 94% 0.00 in
02:00 66.9 °F 65.1 °F 29.99 in SSW 4.0 mph 8.0 mph 94% 0.00 in
02:05 66.9 °F 65.1 °F 29.99 in SSE 5.0 mph 8.0 mph 94% 0.00 in
02:10 66.9 °F 65.1 °F 30.00 in ESE 3.0 mph 6.0 mph 94% 0.00 in
02:15 66.9 °F 65.1 °F 29.99 in SE 4.0 mph 8.0 mph 94% 0.00 in
02:20 66.9 °F 65.1 °F 29.99 in SE 4.0 mph 6.0 mph 94% 0.00 in
02:25 66.9 °F 65.1 °F 29.99 in SSW 5.0 mph 7.0 mph 94% 0.00 in
02:30 66.9 °F 65.1 °F 29.99 in SSE 5.0 mph 6.0 mph 94% 0.00 in
02:35 66.9 °F 65.1 °F 29.99 in SSE 7.0 mph 9.0 mph 94% 0.00 in
02:41 66.8 °F 65.0 °F 29.99 in SSE 7.0 mph 7.0 mph 94% 0.00 in
02:46 66.8 °F 65.0 °F 29.98 in South 3.0 mph 6.0 mph 94% 0.00 in
02:51 66.8 °F 65.0 °F 29.98 in SE 3.0 mph 7.0 mph 94% 0.00 in
02:56 66.8 °F 65.0 °F 29.98 in SE 6.0 mph 6.0 mph 94% 0.00 in
03:01 66.7 °F 64.9 °F 29.98 in SSE 4.0 mph 7.0 mph 94% 0.00 in
03:06 66.7 °F 64.9 °F 29.98 in SE 3.0 mph 7.0 mph 94% 0.00 in
03:11 66.6 °F 64.8 °F 29.98 in South 6.0 mph 9.0 mph 94% 0.00 in
03:16 66.6 °F 64.8 °F 29.98 in SE 6.0 mph 8.0 mph 94% 0.00 in
03:21 66.5 °F 64.7 °F 29.98 in SE 7.0 mph 7.0 mph 94% 0.00 in
03:26 66.5 °F 64.7 °F 29.98 in SSE 2.0 mph 6.0 mph 94% 0.00 in
03:31 66.5 °F 64.7 °F 29.98 in South 3.0 mph 7.0 mph 94% 0.00 in
03:36 66.4 °F 64.6 °F 29.98 in SW 4.0 mph 5.0 mph 94% 0.00 in
03:41 66.4 °F 64.6 °F 29.98 in SSE 3.0 mph 4.0 mph 94% 0.00 in
03:46 66.3 °F 64.5 °F 29.98 in SE 2.0 mph 6.0 mph 94% 0.00 in
03:51 66.3 °F 64.5 °F 29.98 in SE 3.0 mph 5.0 mph 94% 0.00 in
03:56 66.2 °F 64.4 °F 29.98 in SE 3.0 mph 5.0 mph 94% 0.00 in
04:01 66.1 °F 64.3 °F 29.98 in SE 5.0 mph 6.0 mph 94% 0.00 in
04:06 66.1 °F 64.3 °F 29.98 in SE 3.0 mph 5.0 mph 94% 0.00 in
04:11 66.2 °F 64.4 °F 29.98 in SSE 1.0 mph 5.0 mph 94% 0.00 in
04:16 66.2 °F 64.4 °F 29.99 in SSE 2.0 mph 2.0 mph 94% 0.00 in
04:21 66.2 °F 64.4 °F 29.99 in SE 3.0 mph 4.0 mph 94% 0.00 in
04:27 66.1 °F 64.3 °F 29.99 in SE 3.0 mph 4.0 mph 94% 0.00 in
04:32 66.1 °F 64.3 °F 29.99 in ESE 2.0 mph 4.0 mph 94% 0.00 in
04:37 66.0 °F 64.2 °F 29.99 in SE 3.0 mph 4.0 mph 94% 0.00 in
04:42 66.0 °F 64.2 °F 29.99 in SE 4.0 mph 4.0 mph 94% 0.00 in
04:47 65.9 °F 64.1 °F 30.00 in SE 3.0 mph 5.0 mph 94% 0.00 in
04:52 65.8 °F 64.0 °F 30.00 in ESE 2.0 mph 3.0 mph 94% 0.00 in
04:57 65.8 °F 64.0 °F 30.00 in SE 2.0 mph 4.0 mph 94% 0.00 in
05:02 65.8 °F 64.0 °F 30.00 in SE 3.0 mph 5.0 mph 94% 0.00 in
05:07 65.6 °F 63.8 °F 30.00 in SE 2.0 mph 3.0 mph 94% 0.00 in
05:12 65.5 °F 63.7 °F 30.00 in ESE 1.0 mph 2.0 mph 94% 0.00 in
05:17 65.4 °F 63.6 °F 30.00 in ESE 1.0 mph 3.0 mph 94% 0.00 in
05:22 65.4 °F 63.6 °F 30.00 in ESE 1.0 mph 2.0 mph 94% 0.00 in
05:27 65.4 °F 63.6 °F 30.00 in ESE 2.0 mph 3.0 mph 94% 0.00 in
05:32 65.4 °F 63.6 °F 30.00 in ESE 1.0 mph 2.0 mph 94% 0.00 in
05:37 65.5 °F 63.7 °F 30.00 in ESE 2.0 mph 3.0 mph 94% 0.00 in
05:42 65.6 °F 63.8 °F 30.00 in SE 2.0 mph 3.0 mph 94% 0.00 in
05:47 65.6 °F 63.8 °F 30.00 in SE 4.0 mph 4.0 mph 94% 0.00 in
05:52 65.7 °F 63.9 °F 30.00 in ESE 4.0 mph 5.0 mph 94% 0.00 in
05:57 65.8 °F 64.0 °F 30.00 in ESE 3.0 mph 5.0 mph 94% 0.00 in
06:02 65.9 °F 64.1 °F 30.00 in SE 3.0 mph 4.0 mph 94% 0.00 in
06:07 65.9 °F 64.1 °F 30.00 in ESE 4.0 mph 4.0 mph 94% 0.00 in
06:12 65.9 °F 64.1 °F 29.99 in SE 3.0 mph 6.0 mph 94% 0.00 in
06:17 65.9 °F 64.1 °F 30.00 in ESE 4.0 mph 5.0 mph 94% 0.00 in
06:22 66.0 °F 64.2 °F 30.00 in SSE 4.0 mph 5.0 mph 94% 0.00 in
06:27 65.9 °F 64.1 °F 30.01 in SE 3.0 mph 4.0 mph 94% 0.00 in
06:32 65.9 °F 64.1 °F 30.01 in SE 2.0 mph 4.0 mph 94% 0.00 in
06:37 65.9 °F 64.1 °F 30.02 in SE 2.0 mph 3.0 mph 94% 0.00 in
06:43 65.9 °F 64.1 °F 30.02 in ESE 3.0 mph 4.0 mph 94% 0.00 in
06:48 66.0 °F 64.2 °F 30.02 in ESE 2.0 mph 4.0 mph 94% 0.00 in
06:53 66.0 °F 64.2 °F 30.02 in ESE 2.0 mph 3.0 mph 94% 0.00 in
06:58 66.0 °F 64.2 °F 30.03 in SE 3.0 mph 3.0 mph 94% 0.00 in
07:03 66.0 °F 64.2 °F 30.03 in ESE 2.0 mph 3.0 mph 94% 0.00 in
07:08 66.1 °F 64.3 °F 30.03 in SE 3.0 mph 3.0 mph 94% 0.00 in
07:13 66.1 °F 64.3 °F 30.03 in ESE 2.0 mph 3.0 mph 94% 0.00 in
07:18 66.1 °F 64.3 °F 30.03 in SE 2.0 mph 3.0 mph 94% 0.00 in
07:23 66.1 °F 64.3 °F 30.04 in East 2.0 mph 3.0 mph 94% 0.00 in
07:28 66.2 °F 64.4 °F 30.04 in ESE 2.0 mph 2.0 mph 94% 0.00 in
07:33 66.2 °F 64.4 °F 30.04 in SE 3.0 mph 3.0 mph 94% 0.00 in
07:38 66.3 °F 64.5 °F 30.04 in SE 2.0 mph 4.0 mph 94% 0.00 in
07:43 66.4 °F 64.6 °F 30.04 in ESE 4.0 mph 4.0 mph 94% 0.00 in
07:48 66.4 °F 64.6 °F 30.04 in SE 3.0 mph 3.0 mph 94% 0.00 in
07:53 66.4 °F 64.6 °F 30.04 in SE 3.0 mph 3.0 mph 94% 0.00 in
07:58 66.6 °F 64.8 °F 30.04 in SE 3.0 mph 3.0 mph 94% 0.00 in
08:03 66.6 °F 64.8 °F 30.04 in SE 3.0 mph 5.0 mph 94% 0.00 in
08:08 66.8 °F 65.0 °F 30.04 in SE 5.0 mph 5.0 mph 94% 0.00 in
08:13 67.0 °F 65.2 °F 30.04 in SSW 2.0 mph 5.0 mph 94% 0.00 in
08:18 67.1 °F 65.3 °F 30.03 in SSE 4.0 mph 6.0 mph 94% 0.00 in
08:23 67.2 °F 65.4 °F 30.04 in SE 5.0 mph 7.0 mph 94% 0.00 in
08:28 67.3 °F 65.5 °F 30.03 in SSE 4.0 mph 7.0 mph 94% 0.00 in
08:33 67.5 °F 65.7 °F 30.03 in SSE 5.0 mph 7.0 mph 94% 0.00 in
08:38 67.7 °F 65.9 °F 30.03 in SSE 4.0 mph 7.0 mph 94% 0.00 in
08:43 67.8 °F 66.0 °F 30.03 in South 3.0 mph 8.0 mph 94% 0.00 in
08:48 67.9 °F 66.1 °F 30.03 in SSE 6.0 mph 9.0 mph 94% 0.00 in
08:54 68.2 °F 66.1 °F 30.03 in SSW 5.0 mph 9.0 mph 93% 0.00 in
08:59 68.4 °F 66.3 °F 30.03 in South 7.0 mph 8.0 mph 93% 0.00 in
09:04 68.5 °F 66.4 °F 30.03 in SSW 5.0 mph 8.0 mph 93% 0.00 in
09:09 68.6 °F 66.5 °F 30.03 in South 2.0 mph 8.0 mph 93% 0.00 in
09:14 68.7 °F 66.6 °F 30.03 in SW 3.0 mph 6.0 mph 93% 0.00 in
09:19 68.6 °F 66.5 °F 30.04 in SW 5.0 mph 9.0 mph 93% 0.00 in
09:25 68.7 °F 66.6 °F 30.04 in SW 4.0 mph 6.0 mph 93% 0.00 in
09:30 68.8 °F 66.7 °F 30.04 in South 3.0 mph 9.0 mph 93% 0.00 in
09:35 68.9 °F 66.8 °F 30.04 in SSW 4.0 mph 6.0 mph 93% 0.00 in
09:40 68.8 °F 66.7 °F 30.05 in SSE 4.0 mph 10.0 mph 93% 0.00 in
09:45 68.9 °F 66.8 °F 30.05 in South 3.0 mph 7.0 mph 93% 0.00 in
09:50 68.9 °F 66.8 °F 30.05 in WSW 4.0 mph 7.0 mph 93% 0.00 in
09:55 68.8 °F 66.7 °F 30.05 in SW 4.0 mph 8.0 mph 93% 0.00 in
10:00 68.8 °F 66.7 °F 30.06 in SW 5.0 mph 6.0 mph 93% 0.00 in
10:05 68.8 °F 66.7 °F 30.05 in SSW 4.0 mph 6.0 mph 93% 0.00 in
10:10 68.9 °F 66.8 °F 30.05 in SSW 2.0 mph 5.0 mph 93% 0.00 in
10:15 69.0 °F 66.9 °F 30.05 in SE 3.0 mph 5.0 mph 93% 0.00 in
10:20 69.2 °F 67.1 °F 30.05 in SSE 5.0 mph 5.0 mph 93% 0.00 in
10:24 69.3 °F 67.2 °F 30.05 in SE 2.0 mph 6.0 mph 93% 0.00 in
10:29 69.5 °F 67.1 °F 30.05 in SW 3.0 mph 6.0 mph 92% 0.00 in
10:34 69.6 °F 67.2 °F 30.05 in SSW 2.0 mph 5.0 mph 92% 0.00 in
10:39 69.6 °F 67.2 °F 30.05 in SSW 5.0 mph 6.0 mph 92% 0.00 in
10:44 69.6 °F 67.2 °F 30.06 in SW 5.0 mph 7.0 mph 92% 0.00 in
10:49 69.6 °F 67.2 °F 30.05 in SW 5.0 mph 8.0 mph 92% 0.00 in
10:54 69.6 °F 67.2 °F 30.05 in WSW 3.0 mph 6.0 mph 92% 0.00 in
10:59 69.7 °F 67.3 °F 30.05 in SSW 5.0 mph 6.0 mph 92% 0.00 in
11:04 69.8 °F 67.4 °F 30.05 in SSW 2.0 mph 6.0 mph 92% 0.00 in
11:09 70.2 °F 67.4 °F 30.05 in SW 4.0 mph 5.0 mph 91% 0.00 in
11:14 70.7 °F 68.3 °F 30.05 in SSE 6.0 mph 8.0 mph 92% 0.00 in
11:19 71.0 °F 68.2 °F 30.05 in SE 3.0 mph 9.0 mph 91% 0.00 in
11:24 71.4 °F 68.3 °F 30.05 in SSW 3.0 mph 6.0 mph 90% 0.00 in
11:30 71.6 °F 68.5 °F 30.05 in SE 4.0 mph 6.0 mph 90% 0.00 in
11:35 71.8 °F 68.7 °F 30.05 in SSE 6.0 mph 6.0 mph 90% 0.00 in
11:40 72.0 °F 68.6 °F 30.05 in ESE 3.0 mph 6.0 mph 89% 0.00 in
11:45 72.1 °F 68.7 °F 30.05 in SSE 6.0 mph 7.0 mph 89% 0.00 in
11:50 72.5 °F 69.1 °F 30.04 in West 2.0 mph 5.0 mph 89% 0.00 in
11:55 73.1 °F 69.3 °F 30.04 in South 4.0 mph 7.0 mph 88% 0.00 in
12:00 73.4 °F 69.6 °F 30.04 in SE 3.0 mph 3.0 mph 88% 0.00 in
12:05 74.1 °F 70.0 °F 30.04 in SE 4.0 mph 6.0 mph 87% 0.00 in
12:10 74.6 °F 69.8 °F 30.03 in SSW 3.0 mph 6.0 mph 85% 0.00 in
12:15 75.2 °F 70.4 °F 30.03 in SE 3.0 mph 7.0 mph 85% 0.00 in
12:20 75.5 °F 70.3 °F 30.03 in SSE 2.0 mph 4.0 mph 84% 0.00 in
12:25 75.5 °F 69.6 °F 30.03 in WSW 4.0 mph 7.0 mph 82% 0.00 in
12:30 75.6 °F 70.1 °F 30.03 in West 3.0 mph 6.0 mph 83% 0.00 in
12:35 75.7 °F 70.5 °F 30.03 in SW 5.0 mph 8.0 mph 84% 0.00 in
12:41 76.0 °F 70.1 °F 30.03 in West 7.0 mph 7.0 mph 82% 0.00 in
12:46 76.0 °F 70.5 °F 30.03 in SW 4.0 mph 6.0 mph 83% 0.00 in
12:51 75.9 °F 70.0 °F 30.02 in WNW 6.0 mph 7.0 mph 82% 0.00 in
12:56 75.9 °F 70.7 °F 30.03 in WSW 7.0 mph 8.0 mph 84% 0.00 in
13:01 76.4 °F 70.5 °F 30.03 in WNW 2.0 mph 3.0 mph 82% 0.00 in
13:06 76.6 °F 70.7 °F 30.03 in Calm   4.0 mph 82% 0.00 in
13:12 77.1 °F 70.5 °F 30.03 in NW 3.0 mph 6.0 mph 80% 0.00 in
13:17 77.0 °F 70.7 °F 30.03 in West 4.0 mph 6.0 mph 81% 0.00 in
13:22 77.0 °F 70.7 °F 30.04 in WNW 3.0 mph 6.0 mph 81% 0.00 in
13:27 76.8 °F 70.9 °F 30.03 in WNW 4.0 mph 5.0 mph 82% 0.00 in
13:32 76.8 °F 70.5 °F 30.03 in West 2.0 mph 9.0 mph 81% 0.00 in
13:37 76.7 °F 70.8 °F 30.03 in WNW 2.0 mph 5.0 mph 82% 0.00 in
13:42 77.0 °F 70.7 °F 30.03 in WSW 3.0 mph 6.0 mph 81% 0.00 in
13:47 77.2 °F 70.6 °F 30.03 in WSW 4.0 mph 6.0 mph 80% 0.00 in
13:52 77.3 °F 70.7 °F 30.03 in WNW 2.0 mph 7.0 mph 80% 0.00 in
13:57 78.0 °F 71.3 °F 30.03 in WSW 4.0 mph 6.0 mph 80% 0.00 in
14:02 78.3 °F 70.5 °F 30.03 in NNW 1.0 mph 5.0 mph 77% 0.00 in
14:07 78.9 °F 71.5 °F 30.03 in WSW 6.0 mph 6.0 mph 78% 0.00 in
14:12 78.9 °F 71.1 °F 30.03 in SW 5.0 mph 7.0 mph 77% 0.00 in
14:17 79.0 °F 70.8 °F 30.03 in SW 1.0 mph 6.0 mph 76% 0.00 in
14:22 79.7 °F 71.1 °F 30.03 in WSW 3.0 mph 7.0 mph 75% 0.00 in
14:27 79.4 °F 70.8 °F 30.03 in Calm   4.0 mph 75% 0.00 in
14:32 79.5 °F 70.9 °F 30.02 in WSW 4.0 mph 7.0 mph 75% 0.00 in
14:37 79.8 °F 71.6 °F 30.02 in South 2.0 mph 3.0 mph 76% 0.00 in
14:43 80.8 °F 72.5 °F 30.02 in WNW 3.0 mph 7.0 mph 76% 0.00 in
14:48 80.6 °F 72.3 °F 30.02 in West 2.0 mph 4.0 mph 76% 0.00 in
14:53 80.8 °F 72.5 °F 30.02 in West 3.0 mph 4.0 mph 76% 0.00 in
14:58 80.9 °F 71.0 °F 30.02 in NE 3.0 mph 5.0 mph 72% 0.00 in
15:03 81.4 °F 72.3 °F 30.02 in West 3.0 mph 6.0 mph 74% 0.00 in
15:09 81.7 °F 71.0 °F 30.01 in SSW 3.0 mph 5.0 mph 70% 0.00 in
15:14 81.6 °F 70.9 °F 30.01 in SW 4.0 mph 7.0 mph 70% 0.00 in
15:19 81.7 °F 71.4 °F 30.00 in SW 5.0 mph 6.0 mph 71% 0.00 in
15:24 81.8 °F 71.1 °F 30.00 in SSE 5.0 mph 7.0 mph 70% 0.00 in
15:29 82.1 °F 71.8 °F 30.00 in SW 4.0 mph 9.0 mph 71% 0.00 in
15:34 82.3 °F 72.0 °F 29.99 in WNW 3.0 mph 6.0 mph 71% 0.00 in
15:39 82.3 °F 72.0 °F 29.99 in SSW 3.0 mph 7.0 mph 71% 0.00 in
15:44 82.4 °F 70.8 °F 29.99 in SW 5.0 mph 9.0 mph 68% 0.00 in
15:50 82.1 °F 71.8 °F 29.99 in SW 1.0 mph 6.0 mph 71% 0.00 in
15:55 81.8 °F 71.1 °F 29.99 in West 5.0 mph 7.0 mph 70% 0.00 in
16:00 81.7 °F 71.4 °F 29.99 in SSW 6.0 mph 7.0 mph 71% 0.00 in
16:05 81.4 °F 71.1 °F 29.98 in SSE 1.0 mph 4.0 mph 71% 0.00 in
16:10 82.4 °F 71.6 °F 29.98 in SW 3.0 mph 9.0 mph 70% 0.00 in
16:15 82.2 °F 70.2 °F 29.98 in SW 6.0 mph 7.0 mph 67% 0.00 in
16:20 82.2 °F 70.6 °F 29.98 in WSW 5.0 mph 8.0 mph 68% 0.00 in
16:25 82.3 °F 70.7 °F 29.97 in SW 3.0 mph 7.0 mph 68% 0.00 in
16:30 82.3 °F 69.8 °F 29.97 in West 4.0 mph 8.0 mph 66% 0.00 in
16:35 82.5 °F 72.2 °F 29.97 in SSE 4.0 mph 7.0 mph 71% 0.00 in
16:40 83.1 °F 70.1 °F 29.97 in West 2.0 mph 8.0 mph 65% 0.00 in
16:41 83.1 °F 71.0 °F 29.97 in SW 6.0 mph 8.0 mph 67% 0.00 in
16:46 83.1 °F 69.7 °F 29.96 in SW 3.0 mph 8.0 mph 64% 0.00 in
16:51 82.8 °F 71.2 °F 29.96 in SW 2.0 mph 6.0 mph 68% 0.00 in
16:56 83.1 °F 71.4 °F 29.96 in SW 7.0 mph 9.0 mph 68% 0.00 in
17:01 82.8 °F 69.8 °F 29.95 in West 3.0 mph 7.0 mph 65% 0.00 in
17:06 82.6 °F 69.2 °F 29.95 in West 7.0 mph 8.0 mph 64% 0.00 in
17:11 82.9 °F 69.5 °F 29.95 in WSW 6.0 mph 9.0 mph 64% 0.00 in
17:16 82.7 °F 69.8 °F 29.95 in WSW 6.0 mph 8.0 mph 65% 0.00 in
17:21 82.7 °F 69.8 °F 29.95 in SW 6.0 mph 8.0 mph 65% 0.00 in
17:26 82.7 °F 69.8 °F 29.95 in WNW 4.0 mph 6.0 mph 65% 0.00 in
17:31 82.8 °F 70.3 °F 29.95 in SSW 5.0 mph 8.0 mph 66% 0.00 in
17:36 83.0 °F 70.5 °F 29.95 in West 6.0 mph 6.0 mph 66% 0.00 in
17:41 82.9 °F 69.5 °F 29.95 in West 4.0 mph 7.0 mph 64% 0.00 in
17:46 83.0 °F 70.9 °F 29.95 in SW 4.0 mph 4.0 mph 67% 0.00 in
17:51 83.0 °F 69.1 °F 29.94 in WSW 5.0 mph 8.0 mph 63% 0.00 in
17:56 82.9 °F 70.4 °F 29.94 in SSW 5.0 mph 8.0 mph 66% 0.00 in
18:02 83.0 °F 70.5 °F 29.93 in West 3.0 mph 9.0 mph 66% 0.00 in
18:07 83.1 °F 71.0 °F 29.94 in SSW 5.0 mph 8.0 mph 67% 0.00 in
18:12 83.1 °F 70.1 °F 29.94 in SSE 5.0 mph 7.0 mph 65% 0.00 in
18:17 83.2 °F 70.2 °F 29.94 in South 3.0 mph 7.0 mph 65% 0.00 in
18:18 83.2 °F 69.8 °F 29.94 in South 2.0 mph 5.0 mph 64% 0.00 in
18:23 83.1 °F 70.6 °F 29.94 in WSW 2.0 mph 5.0 mph 66% 0.00 in
18:28 83.0 °F 70.0 °F 29.94 in West 3.0 mph 6.0 mph 65% 0.00 in
18:33 83.2 °F 71.1 °F 29.94 in WSW 4.0 mph 5.0 mph 67% 0.00 in
18:38 83.2 °F 71.1 °F 29.94 in West 4.0 mph 5.0 mph 67% 0.00 in
18:43 82.4 °F 70.3 °F 29.94 in West 1.0 mph 6.0 mph 67% 0.00 in
18:48 82.6 °F 71.0 °F 29.94 in WSW 3.0 mph 4.0 mph 68% 0.00 in
18:53 82.9 °F 70.8 °F 29.94 in SSW 2.0 mph 6.0 mph 67% 0.00 in
18:58 82.9 °F 71.3 °F 29.94 in SSW 6.0 mph 6.0 mph 68% 0.00 in
19:03 82.8 °F 71.2 °F 29.94 in WSW 3.0 mph 5.0 mph 68% 0.00 in
19:08 82.7 °F 70.6 °F 29.94 in SW 4.0 mph 6.0 mph 67% 0.00 in
19:13 82.4 °F 71.2 °F 29.93 in SW 4.0 mph 5.0 mph 69% 0.00 in
19:18 82.1 °F 70.9 °F 29.93 in SW 4.0 mph 4.0 mph 69% 0.00 in
19:23 82.0 °F 70.8 °F 29.93 in WSW 3.0 mph 4.0 mph 69% 0.00 in
19:28 81.9 °F 71.2 °F 29.93 in WSW 4.0 mph 5.0 mph 70% 0.00 in
19:33 81.6 °F 70.9 °F 29.92 in SW 5.0 mph 7.0 mph 70% 0.00 in
19:38 81.2 °F 70.9 °F 29.92 in SW 2.0 mph 4.0 mph 71% 0.00 in
19:43 81.1 °F 70.8 °F 29.92 in SW 3.0 mph 5.0 mph 71% 0.00 in
19:48 80.7 °F 71.2 °F 29.92 in SW 1.0 mph 3.0 mph 73% 0.00 in
19:53 80.5 °F 71.1 °F 29.92 in SSW 3.0 mph 4.0 mph 73% 0.00 in
19:58 80.5 °F 71.1 °F 29.92 in SSW 2.0 mph 4.0 mph 73% 0.00 in
20:03 80.3 °F 70.9 °F 29.92 in South 5.0 mph 5.0 mph 73% 0.00 in
20:08 80.1 °F 70.7 °F 29.92 in South 2.0 mph 6.0 mph 73% 0.00 in
20:13 79.7 °F 70.7 °F 29.92 in SSW 3.0 mph 7.0 mph 74% 0.00 in
20:18 79.1 °F 70.5 °F 29.92 in South 2.0 mph 6.0 mph 75% 0.00 in
20:23 78.6 °F 70.4 °F 29.92 in South 3.0 mph 7.0 mph 76% 0.00 in
20:28 78.1 °F 70.3 °F 29.92 in South 3.0 mph 6.0 mph 77% 0.00 in
20:33 77.7 °F 70.3 °F 29.92 in SSW 2.0 mph 5.0 mph 78% 0.00 in
20:38 77.4 °F 70.0 °F 29.92 in South 2.0 mph 4.0 mph 78% 0.00 in
20:43 77.0 °F 70.0 °F 29.92 in SSW 1.0 mph 5.0 mph 79% 0.00 in
20:48 76.6 °F 70.0 °F 29.92 in SW 3.0 mph 5.0 mph 80% 0.00 in
20:53 76.2 °F 69.9 °F 29.92 in SW 3.0 mph 3.0 mph 81% 0.00 in
20:59 76.0 °F 69.8 °F 29.92 in South 2.0 mph 4.0 mph 81% 0.00 in
21:04 75.7 °F 69.8 °F 29.92 in South 2.0 mph 2.0 mph 82% 0.00 in
21:09 75.5 °F 69.6 °F 29.92 in South 2.0 mph 2.0 mph 82% 0.00 in
21:14 75.4 °F 69.5 °F 29.92 in SSW 1.0 mph 3.0 mph 82% 0.00 in
21:19 75.2 °F 69.7 °F 29.92 in SE 1.0 mph 2.0 mph 83% 0.00 in
21:24 74.8 °F 69.7 °F 29.92 in SSE 1.0 mph 2.0 mph 84% 0.00 in
21:29 74.3 °F 69.2 °F 29.92 in SE 1.0 mph 1.0 mph 84% 0.00 in
21:34 74.0 °F 69.6 °F 29.93 in SE 2.0 mph 3.0 mph 86% 0.00 in
21:39 74.0 °F 69.6 °F 29.92 in ESE 3.0 mph 4.0 mph 86% 0.00 in
21:44 74.0 °F 69.6 °F 29.92 in SE 4.0 mph 4.0 mph 86% 0.00 in
21:49 73.9 °F 69.4 °F 29.93 in ESE 3.0 mph 4.0 mph 86% 0.00 in
21:54 73.9 °F 69.4 °F 29.93 in SE 2.0 mph 5.0 mph 86% 0.00 in
21:59 73.8 °F 69.3 °F 29.93 in SE 2.0 mph 4.0 mph 86% 0.00 in
22:04 73.5 °F 69.1 °F 29.93 in SE 2.0 mph 3.0 mph 86% 0.00 in
22:09 73.1 °F 69.0 °F 29.93 in SE 4.0 mph 5.0 mph 87% 0.00 in
22:14 72.9 °F 68.8 °F 29.93 in SE 3.0 mph 4.0 mph 87% 0.00 in
22:19 72.6 °F 68.8 °F 29.93 in SSE 3.0 mph 4.0 mph 88% 0.00 in
22:24 72.4 °F 69.0 °F 29.93 in South 2.0 mph 3.0 mph 89% 0.00 in
22:29 72.3 °F 68.9 °F 29.93 in SSE 2.0 mph 4.0 mph 89% 0.00 in
22:34 72.2 °F 68.8 °F 29.93 in SE 1.0 mph 3.0 mph 89% 0.00 in
22:39 72.2 °F 69.1 °F 29.93 in South 2.0 mph 2.0 mph 90% 0.00 in
22:44 72.2 °F 69.1 °F 29.93 in South 1.0 mph 3.0 mph 90% 0.00 in
22:49 72.0 °F 68.9 °F 29.93 in SSE 2.0 mph 3.0 mph 90% 0.00 in
22:55 71.7 °F 68.6 °F 29.93 in SE 1.0 mph 2.0 mph 90% 0.00 in
23:00 71.5 °F 68.4 °F 29.93 in SE 1.0 mph 1.0 mph 90% 0.00 in
23:05 71.2 °F 68.4 °F 29.93 in SE 1.0 mph 1.0 mph 91% 0.00 in
23:10 71.1 °F 68.3 °F 29.93 in Calm   2.0 mph 91% 0.00 in
23:15 71.1 °F 68.3 °F 29.93 in South 1.0 mph 2.0 mph 91% 0.00 in
23:20 71.0 °F 68.2 °F 29.93 in SSE 1.0 mph 1.0 mph 91% 0.00 in
23:23 70.9 °F 68.2 °F 29.93 in SE 1.0 mph 1.0 mph 91% 0.00 in
23:28 70.8 °F 68.1 °F 29.93 in South 1.0 mph 2.0 mph 91% 0.00 in
23:33 70.7 °F 68.3 °F 29.93 in South 1.0 mph 2.0 mph 92% 0.00 in
23:38 70.8 °F 68.4 °F 29.93 in South 1.0 mph 2.0 mph 92% 0.00 in
23:43 70.7 °F 68.3 °F 29.93 in South 3.0 mph 3.0 mph 92% 0.00 in
23:48 70.7 °F 68.3 °F 29.93 in South 2.0 mph 3.0 mph 92% 0.00 in
23:53 70.8 °F 68.4 °F 29.93 in SSE 2.0 mph 4.0 mph 92% 0.00 in
23:58 70.8 °F 68.1 °F 29.93 in SW 4.0 mph 4.0 mph 91% 0.00 in
Compliments of Weather Underground